sensor_id;sensor_type;location;lat;lon;timestamp;pressure;altitude;pressure_sealevel;temperature;humidity
80869;BME280;70295;40.182;44.498;2023-05-23T00:00:44;90472.11;;;20.63;47.68164
80869;BME280;70295;40.182;44.498;2023-05-23T00:01:44;90461.33;;;20.62;47.88379
80869;BME280;70295;40.182;44.498;2023-05-23T00:02:44;90447;;;20.6;47.55371
80869;BME280;70295;40.182;44.498;2023-05-23T00:03:44;90426.67;;;20.55;47.48145
80869;BME280;70295;40.182;44.498;2023-05-23T00:04:44;90423.19;;;20.48;47.48535
80869;BME280;70295;40.182;44.498;2023-05-23T00:05:44;90429.75;;;20.39;47.66797
80869;BME280;70295;40.182;44.498;2023-05-23T00:06:44;90441.24;;;20.28;48.34375
80869;BME280;70295;40.182;44.498;2023-05-23T00:07:44;90454.84;;;20.22;48.59668
80869;BME280;70295;40.182;44.498;2023-05-23T00:08:44;90455.05;;;20.18;48.80566
80869;BME280;70295;40.182;44.498;2023-05-23T00:09:44;90455.13;;;20.16;48.9834
80869;BME280;70295;40.182;44.498;2023-05-23T00:10:44;90449.19;;;20.16;49.26563
80869;BME280;70295;40.182;44.498;2023-05-23T00:11:44;90445.66;;;20.18;49.61719
80869;BME280;70295;40.182;44.498;2023-05-23T00:12:44;90445.79;;;20.19;49.69727
80869;BME280;70295;40.182;44.498;2023-05-23T00:13:44;90446.05;;;20.22;49.58691
80869;BME280;70295;40.182;44.498;2023-05-23T00:14:44;90442.33;;;20.2;49.39355
80869;BME280;70295;40.182;44.498;2023-05-23T00:15:44;90443;;;20.17;49.40137
80869;BME280;70295;40.182;44.498;2023-05-23T00:16:44;90436.66;;;20.14;49.53223
80869;BME280;70295;40.182;44.498;2023-05-23T00:17:44;90432.34;;;20.09;49.66309
80869;BME280;70295;40.182;44.498;2023-05-23T00:18:44;90426.45;;;20.04;49.81445
80869;BME280;70295;40.182;44.498;2023-05-23T00:19:44;90418.71;;;19.95;50.04199
80869;BME280;70295;40.182;44.498;2023-05-23T00:20:44;90416.09;;;19.85;50.45801
80869;BME280;70295;40.182;44.498;2023-05-23T00:21:45;90408.19;;;19.76;50.85254
80869;BME280;70295;40.182;44.498;2023-05-23T00:22:47;90412.32;;;19.68;51.06836
80869;BME280;70295;40.182;44.498;2023-05-23T00:23:47;90409.53;;;19.62;51.62305
80869;BME280;70295;40.182;44.498;2023-05-23T00:24:47;90406.34;;;19.57;51.81934
80869;BME280;70295;40.182;44.498;2023-05-23T00:25:46;90401.41;;;19.54;52.08496
80869;BME280;70295;40.182;44.498;2023-05-23T00:26:46;90397.41;;;19.5;52.26172
80869;BME280;70295;40.182;44.498;2023-05-23T00:27:47;90391.87;;;19.46;52.15527
80869;BME280;70295;40.182;44.498;2023-05-23T00:28:46;90382.42;;;19.43;52.17383
80869;BME280;70295;40.182;44.498;2023-05-23T00:29:47;90380.31;;;19.41;52.05957
80869;BME280;70295;40.182;44.498;2023-05-23T00:30:47;90379.59;;;19.41;52.02637
80869;BME280;70295;40.182;44.498;2023-05-23T00:31:47;90376.27;;;19.39;52.125
80869;BME280;70295;40.182;44.498;2023-05-23T00:32:47;90373.19;;;19.4;52.37305
80869;BME280;70295;40.182;44.498;2023-05-23T00:33:47;90374.18;;;19.42;52.40918
80869;BME280;70295;40.182;44.498;2023-05-23T00:34:46;90371.17;;;19.41;52.31836
80869;BME280;70295;40.182;44.498;2023-05-23T00:35:47;90366.98;;;19.38;52.3584
80869;BME280;70295;40.182;44.498;2023-05-23T00:36:46;90369.2;;;19.37;52.43652
80869;BME280;70295;40.182;44.498;2023-05-23T00:37:47;90367.41;;;19.36;52.53613
80869;BME280;70295;40.182;44.498;2023-05-23T00:38:47;90372.48;;;19.36;52.6377
80869;BME280;70295;40.182;44.498;2023-05-23T00:39:47;90375.69;;;19.36;52.8623
80869;BME280;70295;40.182;44.498;2023-05-23T00:40:47;90381.93;;;19.38;52.98926
80869;BME280;70295;40.182;44.498;2023-05-23T00:41:47;90386.34;;;19.4;53.04688
80869;BME280;70295;40.182;44.498;2023-05-23T00:42:47;90391.25;;;19.43;53.02832
80869;BME280;70295;40.182;44.498;2023-05-23T00:43:47;90394.75;;;19.49;52.95703
80869;BME280;70295;40.182;44.498;2023-05-23T00:44:47;90399.33;;;19.52;52.95898
80869;BME280;70295;40.182;44.498;2023-05-23T00:45:47;90401.89;;;19.56;52.94238
80869;BME280;70295;40.182;44.498;2023-05-23T00:46:48;90402.84;;;19.58;52.92188
80869;BME280;70295;40.182;44.498;2023-05-23T00:47:40;90405.05;;;19.57;52.81934
80869;BME280;70295;40.182;44.498;2023-05-23T00:48:39;90401.74;;;19.59;52.77734
80869;BME280;70295;40.182;44.498;2023-05-23T00:49:39;90403.58;;;19.62;52.71387
80869;BME280;70295;40.182;44.498;2023-05-23T00:50:39;90402.77;;;19.64;52.72754
80869;BME280;70295;40.182;44.498;2023-05-23T00:51:39;90405.21;;;19.66;52.84082
80869;BME280;70295;40.182;44.498;2023-05-23T00:52:39;90407;;;19.66;52.83105
80869;BME280;70295;40.182;44.498;2023-05-23T00:53:40;90409.21;;;19.65;52.91992
80869;BME280;70295;40.182;44.498;2023-05-23T00:54:39;90410.2;;;19.63;53.07422
80869;BME280;70295;40.182;44.498;2023-05-23T00:55:39;90413;;;19.61;53.24023
80869;BME280;70295;40.182;44.498;2023-05-23T00:56:39;90414.72;;;19.58;53.4502
80869;BME280;70295;40.182;44.498;2023-05-23T00:57:39;90411.72;;;19.57;53.62891
80869;BME280;70295;40.182;44.498;2023-05-23T00:58:40;90413.51;;;19.53;53.62402
80869;BME280;70295;40.182;44.498;2023-05-23T00:59:39;90409.64;;;19.51;53.67773
80869;BME280;70295;40.182;44.498;2023-05-23T01:00:40;90410.33;;;19.48;53.71875
80869;BME280;70295;40.182;44.498;2023-05-23T01:01:40;90408.27;;;19.45;53.71484
80869;BME280;70295;40.182;44.498;2023-05-23T01:02:43;90407.23;;;19.44;53.63574
80869;BME280;70295;40.182;44.498;2023-05-23T01:03:17;90405.16;;;19.46;53.7168
80869;BME280;70295;40.182;44.498;2023-05-23T01:04:17;90403.37;;;19.42;53.63184
80869;BME280;70295;40.182;44.498;2023-05-23T01:05:18;90402.55;;;19.4;53.47363
80869;BME280;70295;40.182;44.498;2023-05-23T01:06:18;90397.8;;;19.37;53.30078
80869;BME280;70295;40.182;44.498;2023-05-23T01:07:18;90392.34;;;19.35;53.10645
80869;BME280;70295;40.182;44.498;2023-05-23T01:08:18;90390.86;;;19.31;53.01367
80869;BME280;70295;40.182;44.498;2023-05-23T01:09:18;90387.63;;;19.27;52.93066
80869;BME280;70295;40.182;44.498;2023-05-23T01:10:18;90390.52;;;19.22;52.95801
80869;BME280;70295;40.182;44.498;2023-05-23T01:14:41;90372.2;;;19.03;53.03613
80869;BME280;70295;40.182;44.498;2023-05-23T01:15:42;90370.86;;;18.96;52.92676
80869;BME280;70295;40.182;44.498;2023-05-23T01:16:34;90371.13;;;18.94;53.07031
80869;BME280;70295;40.182;44.498;2023-05-23T01:17:25;90374.36;;;18.9;53.07715
80869;BME280;70295;40.182;44.498;2023-05-23T01:25:02;90387.23;;;18.79;53.48926
80869;BME280;70295;40.182;44.498;2023-05-23T01:26:45;90373.92;;;18.7;53.78125
80869;BME280;70295;40.182;44.498;2023-05-23T01:28:07;90366.22;;;18.7;54.02734
80869;BME280;70295;40.182;44.498;2023-05-23T01:28:47;90366.81;;;18.72;53.96387
80869;BME280;70295;40.182;44.498;2023-05-23T01:29:46;90370.85;;;18.66;54.1123
80869;BME280;70295;40.182;44.498;2023-05-23T01:30:24;90370.63;;;18.67;54.16992
80869;BME280;70295;40.182;44.498;2023-05-23T01:31:24;90368.46;;;18.67;54.23828
80869;BME280;70295;40.182;44.498;2023-05-23T01:32:13;90368.07;;;18.68;54.15918
80869;BME280;70295;40.182;44.498;2023-05-23T01:33:14;90375.26;;;18.73;54.1543
80869;BME280;70295;40.182;44.498;2023-05-23T01:34:13;90374.81;;;18.75;54.17871
80869;BME280;70295;40.182;44.498;2023-05-23T01:35:14;90379.84;;;18.75;54.19141
80869;BME280;70295;40.182;44.498;2023-05-23T01:35:50;90378.77;;;18.75;54.22363
80869;BME280;70295;40.182;44.498;2023-05-23T01:36:53;90374.41;;;18.71;54.36621
80869;BME280;70295;40.182;44.498;2023-05-23T01:37:40;90372.11;;;18.75;54.4375
80869;BME280;70295;40.182;44.498;2023-05-23T01:38:40;90373.33;;;18.71;54.40039
80869;BME280;70295;40.182;44.498;2023-05-23T01:39:40;90372.47;;;18.75;54.39258
80869;BME280;70295;40.182;44.498;2023-05-23T01:40:40;90370.63;;;18.76;54.46094
80869;BME280;70295;40.182;44.498;2023-05-23T01:42:01;90365.14;;;17.24;53.2707
80869;BME280;70295;40.182;44.498;2023-05-23T01:43:01;90366.95;;;17.23;53.31367
80869;BME280;70295;40.182;44.498;2023-05-23T01:44:01;90366.41;;;17.23;53.31367
80869;BME280;70295;40.182;44.498;2023-05-23T01:45:01;90368.33;;;17.25;53.36055
80869;BME280;70295;40.182;44.498;2023-05-23T01:46:01;90367.8;;;17.24;53.41621
80869;BME280;70295;40.182;44.498;2023-05-23T01:46:38;90369.2;;;17.3;53.43379
80869;BME280;70295;40.182;44.498;2023-05-23T01:48:18;90371.39;;;17.34;53.40644
80869;BME280;70295;40.182;44.498;2023-05-23T01:49:08;90371.98;;;17.32;53.32539
80869;BME280;70295;40.182;44.498;2023-05-23T01:50:27;90369.83;;;17.36;53.28535
80869;BME280;70295;40.182;44.498;2023-05-23T01:51:27;90371.13;;;17.36;53.31855
80869;BME280;70295;40.182;44.498;2023-05-23T01:52:27;90370.45;;;17.35;53.34004
80869;BME280;70295;40.182;44.498;2023-05-23T01:54:02;90370.17;;;17.28;53.33223
80869;BME280;70295;40.182;44.498;2023-05-23T01:55:03;90369.02;;;17.3;53.34492
80869;BME280;70295;40.182;44.498;2023-05-23T01:55:39;90367.71;;;17.35;53.42988
80869;BME280;70295;40.182;44.498;2023-05-23T01:56:39;90364.33;;;17.3;53.43476
80869;BME280;70295;40.182;44.498;2023-05-23T01:57:39;90361.94;;;17.32;53.38008
80869;BME280;70295;40.182;44.498;2023-05-23T01:58:39;90355.61;;;17.32;53.32539
80869;BME280;70295;40.182;44.498;2023-05-23T01:59:39;90354.94;;;17.31;53.27949
80869;BME280;70295;40.182;44.498;2023-05-23T02:00:39;90357.67;;;17.3;53.2668
80869;BME280;70295;40.182;44.498;2023-05-23T02:01:39;90358.2;;;17.31;53.23359
80869;BME280;70295;40.182;44.498;2023-05-23T02:03:11;90363.75;;;17.36;53.16133
80869;BME280;70295;40.182;44.498;2023-05-23T02:04:11;90363.06;;;17.35;53.08223
80869;BME280;70295;40.182;44.498;2023-05-23T02:05:11;90365.36;;;17.36;53.05
80869;BME280;70295;40.182;44.498;2023-05-23T02:06:11;90357.08;;;17.36;53.00508
80869;BME280;70295;40.182;44.498;2023-05-23T02:07:11;90359.06;;;17.36;52.9709
80869;BME280;70295;40.182;44.498;2023-05-23T02:08:11;90357.45;;;17.36;52.96016
80869;BME280;70295;40.182;44.498;2023-05-23T02:09:11;90356.41;;;17.35;52.94746
80869;BME280;70295;40.182;44.498;2023-05-23T02:10:11;90358.08;;;17.33;52.90156
80869;BME280;70295;40.182;44.498;2023-05-23T02:11:11;90360.95;;;17.34;52.9123
80869;BME280;70295;40.182;44.498;2023-05-23T02:12:11;90364.88;;;17.34;52.88984
80869;BME280;70295;40.182;44.498;2023-05-23T02:15:23;90364.33;;;17.35;52.86934
80869;BME280;70295;40.182;44.498;2023-05-23T02:16:23;90367.47;;;17.42;52.7873
80869;BME280;70295;40.182;44.498;2023-05-23T02:17:23;90370.77;;;17.44;52.76777
80869;BME280;70295;40.182;44.498;2023-05-23T02:18:23;90370.72;;;17.45;52.70137
80869;BME280;70295;40.182;44.498;2023-05-23T02:19:54;90372.48;;;17.46;52.62422
80869;BME280;70295;40.182;44.498;2023-05-23T02:20:54;90366.49;;;17.47;52.61445
80869;BME280;70295;40.182;44.498;2023-05-23T02:21:54;90368.59;;;17.49;52.57148
80869;BME280;70295;40.182;44.498;2023-05-23T02:22:54;90368.01;;;17.5;52.55195
80869;BME280;70295;40.182;44.498;2023-05-23T02:23:54;90369.19;;;17.52;52.49726
80869;BME280;70295;40.182;44.498;2023-05-23T02:24:54;90361.98;;;17.52;52.42988
80869;BME280;70295;40.182;44.498;2023-05-23T02:25:54;90356.53;;;17.54;52.40937
80869;BME280;70295;40.182;44.498;2023-05-23T02:26:54;90357.17;;;17.55;52.39961
80869;BME280;70295;40.182;44.498;2023-05-23T02:27:54;90356.27;;;17.56;52.36641
80869;BME280;70295;40.182;44.498;2023-05-23T02:28:54;90355.05;;;17.55;52.37617
80869;BME280;70295;40.182;44.498;2023-05-23T02:29:54;90354.83;;;17.55;52.39961
80869;BME280;70295;40.182;44.498;2023-05-23T02:30:54;90354.6;;;17.56;52.40156
80869;BME280;70295;40.182;44.498;2023-05-23T02:31:54;90354.09;;;17.56;52.36738
80869;BME280;70295;40.182;44.498;2023-05-23T02:32:54;90349.55;;;17.57;52.39082
80869;BME280;70295;40.182;44.498;2023-05-23T02:33:54;90354.95;;;17.57;52.4123
80869;BME280;70295;40.182;44.498;2023-05-23T02:34:54;90345.45;;;17.56;52.47871
80869;BME280;70295;40.182;44.498;2023-05-23T02:35:54;90339.88;;;17.56;52.56855
80869;BME280;70295;40.182;44.498;2023-05-23T02:36:54;90335.88;;;17.57;52.64766
80869;BME280;70295;40.182;44.498;2023-05-23T02:37:54;90332.41;;;17.58;52.63887
80869;BME280;70295;40.182;44.498;2023-05-23T02:38:54;90336.86;;;17.59;52.68476
80869;BME280;70295;40.182;44.498;2023-05-23T02:39:54;90341.31;;;17.6;52.69746
80869;BME280;70295;40.182;44.498;2023-05-23T02:40:54;90341.31;;;17.6;52.675
80869;BME280;70295;40.182;44.498;2023-05-23T02:41:54;90343.97;;;17.61;52.65351
80869;BME280;70295;40.182;44.498;2023-05-23T02:42:54;90350.8;;;17.62;52.67695
80869;BME280;70295;40.182;44.498;2023-05-23T02:43:54;90348.38;;;17.63;52.74531
80869;BME280;70295;40.182;44.498;2023-05-23T02:44:54;90352.02;;;17.66;52.76094
80869;BME280;70295;40.182;44.498;2023-05-23T02:45:54;90355.19;;;17.69;52.7082
80869;BME280;70295;40.182;44.498;2023-05-23T02:46:54;90359.42;;;17.71;52.59883
80869;BME280;70295;40.182;44.498;2023-05-23T02:47:54;90356.48;;;17.72;52.5998
80869;BME280;70295;40.182;44.498;2023-05-23T02:48:54;90357.3;;;17.74;52.58027
80869;BME280;70295;40.182;44.498;2023-05-23T02:49:54;90361.62;;;17.74;52.52461
80869;BME280;70295;40.182;44.498;2023-05-23T02:50:54;90360.23;;;17.73;52.49922
80869;BME280;70295;40.182;44.498;2023-05-23T02:51:54;90354.14;;;17.73;52.56562
80869;BME280;70295;40.182;44.498;2023-05-23T02:52:54;90356.08;;;17.74;52.5793
80869;BME280;70295;40.182;44.498;2023-05-23T02:53:54;90359.09;;;17.75;52.53535
80869;BME280;70295;40.182;44.498;2023-05-23T02:54:54;90361.4;;;17.75;52.52461
80869;BME280;70295;40.182;44.498;2023-05-23T02:55:54;90358.95;;;17.78;52.53926
80869;BME280;70295;40.182;44.498;2023-05-23T02:56:54;90363.41;;;17.79;52.56269
80869;BME280;70295;40.182;44.498;2023-05-23T02:57:54;90362.15;;;17.79;52.55195
80869;BME280;70295;40.182;44.498;2023-05-23T02:58:54;90365.25;;;17.78;52.56269
80869;BME280;70295;40.182;44.498;2023-05-23T02:59:54;90363.23;;;17.79;52.50605
80869;BME280;70295;40.182;44.498;2023-05-23T03:00:54;90361.47;;;17.78;52.48359
80869;BME280;70295;40.182;44.498;2023-05-23T03:01:54;90361.38;;;17.8;52.56367
80869;BME280;70295;40.182;44.498;2023-05-23T03:02:54;90365.47;;;17.81;52.54316
80869;BME280;70295;40.182;44.498;2023-05-23T03:03:54;90358.8;;;17.81;52.46504
80869;BME280;70295;40.182;44.498;2023-05-23T03:04:54;90358.58;;;17.82;52.46601
80869;BME280;70295;40.182;44.498;2023-05-23T03:05:54;90361.41;;;17.84;52.45723
80869;BME280;70295;40.182;44.498;2023-05-23T03:06:54;90358.58;;;17.86;52.47187
80869;BME280;70295;40.182;44.498;2023-05-23T03:07:54;90361.86;;;17.89;52.37422
80869;BME280;70295;40.182;44.498;2023-05-23T03:08:54;90369.05;;;17.9;52.28535
80869;BME280;70295;40.182;44.498;2023-05-23T03:09:54;90366.58;;;17.93;52.16523
80869;BME280;70295;40.182;44.498;2023-05-23T03:10:54;90366.12;;;17.95;52.14473
80869;BME280;70295;40.182;44.498;2023-05-23T03:11:54;90372.04;;;18;52.1291
80869;BME280;70295;40.182;44.498;2023-05-23T03:12:54;90375.55;;;18.06;52.05684
80869;BME280;70295;40.182;44.498;2023-05-23T03:13:54;90379.59;;;18.13;51.9416
80869;BME280;70295;40.182;44.498;2023-05-23T03:14:54;90376.64;;;18.18;51.80098
80869;BME280;70295;40.182;44.498;2023-05-23T03:15:54;90378.2;;;18.24;51.63984
80869;BME280;70295;40.182;44.498;2023-05-23T03:16:54;90376.87;;;18.29;51.54609
80869;BME280;70295;40.182;44.498;2023-05-23T03:17:54;90375.36;;;18.35;51.46113
80869;BME280;70295;40.182;44.498;2023-05-23T03:18:54;90371.01;;;18.4;51.37715
80869;BME280;70295;40.182;44.498;2023-05-23T03:19:54;90367.39;;;18.44;51.2248
80869;BME280;70295;40.182;44.498;2023-05-23T03:20:54;90361.48;;;18.47;51.16035
80869;BME280;70295;40.182;44.498;2023-05-23T03:21:54;90359.52;;;18.5;51.15351
80869;BME280;70295;40.182;44.498;2023-05-23T03:22:54;90361.22;;;18.53;51.0666
80869;BME280;70295;40.182;44.498;2023-05-23T03:23:54;90363.68;;;18.55;51.03437
80869;BME280;70295;40.182;44.498;2023-05-23T03:24:54;90366.81;;;18.57;50.98262
80869;BME280;70295;40.182;44.498;2023-05-23T03:25:54;90369.79;;;18.59;50.96113
80869;BME280;70295;40.182;44.498;2023-05-23T03:26:54;90369.02;;;18.6;50.88398
80869;BME280;70295;40.182;44.498;2023-05-23T03:27:54;90363.02;;;18.61;50.78437
80869;BME280;70295;40.182;44.498;2023-05-23T03:28:54;90364.99;;;18.62;50.72773
80869;BME280;70295;40.182;44.498;2023-05-23T03:29:54;90364.77;;;18.63;50.72871
80869;BME280;70295;40.182;44.498;2023-05-23T03:30:54;90362.01;;;18.64;50.63984
80869;BME280;70295;40.182;44.498;2023-05-23T03:31:54;90362.98;;;18.66;50.60957
80869;BME280;70295;40.182;44.498;2023-05-23T03:32:54;90364.28;;;18.69;50.46699
80869;BME280;70295;40.182;44.498;2023-05-23T03:33:54;90366.88;;;18.71;50.27851
80869;BME280;70295;40.182;44.498;2023-05-23T03:34:54;90364.25;;;18.74;50.12324
80869;BME280;70295;40.182;44.498;2023-05-23T03:35:54;90368.53;;;18.75;50.03535
80869;BME280;70295;40.182;44.498;2023-05-23T03:36:54;90368.92;;;18.78;50.02656
80869;BME280;70295;40.182;44.498;2023-05-23T03:37:54;90368.13;;;18.83;49.9875
80869;BME280;70295;40.182;44.498;2023-05-23T03:38:54;90371.06;;;18.9;49.92793
80869;BME280;70295;40.182;44.498;2023-05-23T03:39:54;90372.36;;;18.97;49.85762
80869;BME280;70295;40.182;44.498;2023-05-23T03:40:54;90373.44;;;19.05;49.76484
80869;BME280;70295;40.182;44.498;2023-05-23T03:41:54;90372.41;;;19.12;49.65937
80869;BME280;70295;40.182;44.498;2023-05-23T03:43:56;90371.84;;;19.34;49.21211
80869;BME280;70295;40.182;44.498;2023-05-23T03:44:56;90365.64;;;19.4;49.14082
80869;BME280;70295;40.182;44.498;2023-05-23T03:45:56;90364.59;;;19.47;48.93379
80869;BME280;70295;40.182;44.498;2023-05-23T03:46:56;90357.33;;;19.51;48.83711
80869;BME280;70295;40.182;44.498;2023-05-23T03:47:55;90357.98;;;19.56;48.55879
80869;BME280;70295;40.182;44.498;2023-05-23T03:48:56;90357.16;;;19.58;48.30293
80869;BME280;70295;40.182;44.498;2023-05-23T03:49:56;90357.44;;;19.6;48.32734
80869;BME280;70295;40.182;44.498;2023-05-23T03:50:56;90358.68;;;19.64;48.37617
80869;BME280;70295;40.182;44.498;2023-05-23T03:51:56;90360.13;;;19.68;48.27949
80869;BME280;70295;40.182;44.498;2023-05-23T03:52:56;90366.43;;;19.71;48.30684
80869;BME280;70295;40.182;44.498;2023-05-23T03:53:55;90372.64;;;19.78;48.27949
80869;BME280;70295;40.182;44.498;2023-05-23T03:54:56;90374.61;;;19.85;48.32148
80869;BME280;70295;40.182;44.498;2023-05-23T03:55:56;90380.67;;;19.94;48.20625
80869;BME280;70295;40.182;44.498;2023-05-23T03:56:55;90382.8;;;20.02;48.05684
80869;BME280;70295;40.182;44.498;2023-05-23T03:57:56;90382.23;;;20.09;48.0207
80869;BME280;70295;40.182;44.498;2023-05-23T03:58:56;90383.11;;;20.18;48.06269
80869;BME280;70295;40.182;44.498;2023-05-23T03:59:56;90380.61;;;20.24;47.98066
80869;BME280;70295;40.182;44.498;2023-05-23T04:00:58;90388.52;;;20.29;48.06367
80869;BME280;70295;40.182;44.498;2023-05-23T04:01:35;90393.21;;;20.29;48.04121
80869;BME280;70295;40.182;44.498;2023-05-23T04:02:35;90389.92;;;20.29;48.20039
80869;BME280;70295;40.182;44.498;2023-05-23T04:03:35;90387.27;;;20.28;48.24531
80869;BME280;70295;40.182;44.498;2023-05-23T04:04:35;90384.91;;;20.28;48.38008
80869;BME280;70295;40.182;44.498;2023-05-23T04:05:35;90384.53;;;20.29;48.41426
80869;BME280;70295;40.182;44.498;2023-05-23T04:06:35;90385.89;;;20.3;48.59687
80869;BME280;70295;40.182;44.498;2023-05-23T04:07:35;90386.26;;;20.33;48.79219
80869;BME280;70295;40.182;44.498;2023-05-23T04:08:35;90389.39;;;20.36;48.9875
80869;BME280;70295;40.182;44.498;2023-05-23T04:09:35;90392.29;;;20.39;49.15059
80869;BME280;70295;40.182;44.498;2023-05-23T04:10:35;90399.71;;;20.43;49.3459
80869;BME280;70295;40.182;44.498;2023-05-23T04:11:35;90398.66;;;20.45;49.42793
80869;BME280;70295;40.182;44.498;2023-05-23T04:12:35;90393.83;;;20.48;49.37422
80869;BME280;70295;40.182;44.498;2023-05-23T04:13:28;90397.55;;;20.5;49.11641
80869;BME280;70295;40.182;44.498;2023-05-23T04:14:28;90395.92;;;20.5;49.07148
80869;BME280;70295;40.182;44.498;2023-05-23T04:15:28;90397.98;;;20.48;49.11543
80869;BME280;70295;40.182;44.498;2023-05-23T04:16:28;90398.77;;;20.47;49.12422
80869;BME280;70295;40.182;44.498;2023-05-23T04:17:28;90402.08;;;20.46;49.20234
80869;BME280;70295;40.182;44.498;2023-05-23T04:18:28;90406.06;;;20.46;49.32734
80869;BME280;70295;40.182;44.498;2023-05-23T04:19:28;90413.47;;;20.46;49.33809
80869;BME280;70295;40.182;44.498;2023-05-23T04:20:28;90413.29;;;20.46;49.3498
80869;BME280;70295;40.182;44.498;2023-05-23T04:21:28;90420.7;;;20.46;49.43965
80869;BME280;70295;40.182;44.498;2023-05-23T04:22:28;90416.59;;;20.48;49.4543
80869;BME280;70295;40.182;44.498;2023-05-23T04:23:28;90419.69;;;20.51;49.50312
80869;BME280;70295;40.182;44.498;2023-05-23T04:24:28;90421.56;;;20.57;49.57734
80869;BME280;70295;40.182;44.498;2023-05-23T04:25:28;90425.02;;;20.63;49.55
80869;BME280;70295;40.182;44.498;2023-05-23T04:26:28;90427.08;;;20.69;49.52266
80869;BME280;70295;40.182;44.498;2023-05-23T04:27:28;90428.11;;;20.74;49.38105
80869;BME280;70295;40.182;44.498;2023-05-23T04:28:28;90424.8;;;20.78;49.29414
80869;BME280;70295;40.182;44.498;2023-05-23T04:29:28;90430.37;;;20.82;49.20918
80869;BME280;70295;40.182;44.498;2023-05-23T04:30:06;90428.08;;;20.81;49.32148
80869;BME280;70295;40.182;44.498;2023-05-23T04:31:06;90434.84;;;20.87;49.23848
80869;BME280;70295;40.182;44.498;2023-05-23T04:32:06;90430.42;;;20.92;49.10762
80869;BME280;70295;40.182;44.498;2023-05-23T04:33:06;90430.91;;;20.96;48.94258
80869;BME280;70295;40.182;44.498;2023-05-23T04:34:06;90426.31;;;21.01;48.78926
80869;BME280;70295;40.182;44.498;2023-05-23T04:35:06;90425.54;;;21.05;48.66914
80869;BME280;70295;40.182;44.498;2023-05-23T04:36:06;90427.84;;;21.09;48.59492
80869;BME280;70295;40.182;44.498;2023-05-23T04:37:06;90427.81;;;21.14;48.50898
80869;BME280;70295;40.182;44.498;2023-05-23T04:38:06;90425.66;;;21.2;48.41426
80869;BME280;70295;40.182;44.498;2023-05-23T04:39:06;90423.73;;;21.25;48.28437
80869;BME280;70295;40.182;44.498;2023-05-23T04:40:06;90421.8;;;21.31;48.17695
80869;BME280;70295;40.182;44.498;2023-05-23T04:41:06;90420.11;;;21.35;47.97773
80869;BME280;70295;40.182;44.498;2023-05-23T04:42:06;90424.15;;;21.41;47.75605
80869;BME280;70295;40.182;44.498;2023-05-23T04:43:06;90424.63;;;21.45;47.64863
80869;BME280;70295;40.182;44.498;2023-05-23T04:44:06;90423.84;;;21.49;47.50605
80869;BME280;70295;40.182;44.498;2023-05-23T04:45:06;90423.96;;;21.54;47.43184
80869;BME280;70295;40.182;44.498;2023-05-23T04:46:06;90423.59;;;21.57;47.29805
80869;BME280;70295;40.182;44.498;2023-05-23T04:46:45;90424.61;;;21.62;47.22383
80869;BME280;70295;40.182;44.498;2023-05-23T04:47:46;90424.98;;;21.65;47.16035
80869;BME280;70295;40.182;44.498;2023-05-23T04:48:46;90426.69;;;21.7;47.14277
80869;BME280;70295;40.182;44.498;2023-05-23T04:49:46;90428.06;;;21.75;46.98945
80869;BME280;70295;40.182;44.498;2023-05-23T04:50:46;90429.84;;;21.79;46.91426
80869;BME280;70295;40.182;44.498;2023-05-23T04:51:45;90428.46;;;21.84;46.85078
80869;BME280;70295;40.182;44.498;2023-05-23T04:52:45;90433.95;;;21.89;46.70918
80869;BME280;70295;40.182;44.498;2023-05-23T04:53:46;90437.13;;;21.94;46.63594
80869;BME280;70295;40.182;44.498;2023-05-23T04:54:45;90440.25;;;22;46.55098
80869;BME280;70295;40.182;44.498;2023-05-23T04:55:46;90443.7;;;22.05;46.44258
80869;BME280;70295;40.182;44.498;2023-05-23T04:56:46;90445.02;;;22.11;46.30098
80869;BME280;70295;40.182;44.498;2023-05-23T04:57:46;90446.33;;;22.17;46.26191
80869;BME280;70295;40.182;44.498;2023-05-23T04:58:46;90440.73;;;22.23;46.07539
80869;BME280;70295;40.182;44.498;2023-05-23T04:59:45;90444.84;;;22.27;45.98848
80869;BME280;70295;40.182;44.498;2023-05-23T05:00:46;90446.59;;;22.31;45.86836
80869;BME280;70295;40.182;44.498;2023-05-23T05:01:46;90446.64;;;22.37;45.72676
80869;BME280;70295;40.182;44.498;2023-05-23T05:02:46;90445.53;;;22.43;45.58516
80869;BME280;70295;40.182;44.498;2023-05-23T05:03:45;90443.69;;;22.5;45.37617
80869;BME280;70295;40.182;44.498;2023-05-23T05:04:45;90441.19;;;22.55;45.06367
80869;BME280;70295;40.182;44.498;2023-05-23T05:05:46;90442.93;;;22.54;44.8
80869;BME280;70295;40.182;44.498;2023-05-23T05:06:46;90437.41;;;22.49;44.55684
80869;BME280;70295;40.182;44.498;2023-05-23T05:07:46;90439.69;;;22.38;44.6584
80869;BME280;70295;40.182;44.498;2023-05-23T05:08:46;90439.27;;;22.26;44.9084
80869;BME280;70295;40.182;44.498;2023-05-23T05:09:45;90439.06;;;22.2;45.24336
80869;BME280;70295;40.182;44.498;2023-05-23T05:10:45;90440.52;;;22.2;45.32148
80869;BME280;70295;40.182;44.498;2023-05-23T05:11:45;90436.27;;;22.18;45.16133
80869;BME280;70295;40.182;44.498;2023-05-23T05:12:46;90436.34;;;22.14;45.0207
80869;BME280;70295;40.182;44.498;2023-05-23T05:13:51;90438.73;;;22.07;45.10469
80869;BME280;70295;40.182;44.498;2023-05-23T05:14:51;90439.54;;;22.03;45.25898
80869;BME280;70295;40.182;44.498;2023-05-23T05:15:51;90441.59;;;22.01;45.34785